< < Back
Terminal Aerodrome Forecast


Current Version              Previous Versions:   1  2  3  4  5  6  7  8  9  

Terminal Aerodrome Forecast

684
FTUS42 KFFC 041554 AAB
TAFATL
TAF AMD
KATL 041554Z 0416/0518 35003KT P6SM FEW040 FEW250
     FM041800 03005KT P6SM SCT050 BKN250
     FM050500 04003KT P6SM SCT110
     FM051400 08006KT P6SM SCT050=

Latest METAR

414
SAUS70 KWBC 042100 RRD
MTRATL
METAR KATL 042052Z VRB03KT 10SM SCT050CB BKN110 BKN250 33/21 A2997 RMK
AO2 SLP137 CB NW-N-NE MOV S TCU DSNT E & S SHRA VC NW-N-NE
T03330206 58017


USA.gov is the U.S. government's official web portal to all federal, state and local government web resources and services.